Terminal Aerodrome Forecast
Issued by NWS Corpus Christi, TX

Home | Current Version | Previous Version | Text Only | Print | Product List | Glossary On
Versions: 1 2 3 4 5 6 7 8 9 10 11 12 13 14 15 16 17 18 19
000
FTUS44 KCRP 011400 AAB
TAFVCT
TAF AMD
KVCT 011404Z 0114/0212 15004KT 1/2SM FG VV003
      TEMPO 0114/0115 1/4SM FG VV003
     FM011500 27005KT 3SM BR FEW012 BKN100
     FM011600 27008KT P6SM SCT040 BKN100
     FM020300 36015G22KT P6SM SCT050 OVC200
     FM020500 36019G27KT P6SM FEW015=

USA.gov is the U.S. government's official web portal to all federal, state and local government web resources and services.